Time;durP1;ratioP1;P1;durP2;ratioP2;P2;SDS_P1;SDS_P2;PMS_P1;PMS_P2;Temp;Humidity;BMP_temperature;BMP_pressure;BME280_temperature;BME280_humidity;BME280_pressure;Samples;Min_cycle;Max_cycle;Signal;HPM_P1;HPM_P2
2023/09/07 00:02:00;;;;;;;14.30;9.00;;;;;;;12.27;80.17;101091.39;133699;1301;22472;-75
2023/09/07 00:05:00;;;;;;;15.40;8.90;;;;;;;12.24;79.57;101091.11;133728;1300;22272;-75
2023/09/07 00:08:01;;;;;;;12.10;8.90;;;;;;;12.22;79.20;101096.09;133698;1301;22459;-75
2023/09/07 00:11:09;;;;;;;11.70;8.60;;;;;;;12.19;79.08;101096.75;133768;1301;22378;-75
2023/09/07 00:14:09;;;;;;;12.70;8.10;;;;;;;12.16;78.88;101099.55;133729;1301;22227;-75
2023/09/07 00:17:10;;;;;;;12.00;9.00;;;;;;;12.12;78.66;101103.71;133730;1301;22469;-75
2023/09/07 00:20:11;;;;;;;16.90;8.40;;;;;;;12.06;79.00;101103.89;133734;1301;22248;-75
2023/09/07 00:23:12;;;;;;;15.90;8.60;;;;;;;12.03;78.80;101102.23;133736;1300;22541;-75
2023/09/07 00:26:12;;;;;;;15.90;9.00;;;;;;;11.99;78.66;101103.52;133724;1301;22557;-75
2023/09/07 00:29:13;;;;;;;13.90;9.60;;;;;;;11.98;78.81;101102.05;133718;1302;22480;-75
2023/09/07 00:32:14;;;;;;;18.30;9.00;;;;;;;11.95;78.88;101101.67;133758;1301;22228;-75
2023/09/07 00:35:14;;;;;;;14.30;8.90;;;;;;;11.88;78.81;101100.72;133717;1300;22393;-75
2023/09/07 00:38:15;;;;;;;11.40;8.40;;;;;;;11.80;78.84;101104.16;133737;1301;23676;-75
2023/09/07 00:41:16;;;;;;;15.80;8.60;;;;;;;11.76;78.97;101096.80;133718;1301;22287;-75
2023/09/07 00:44:16;;;;;;;12.80;9.30;;;;;;;11.73;79.02;101096.91;133758;1301;22435;-75
2023/09/07 00:47:17;;;;;;;11.90;8.90;;;;;;;11.70;78.93;101093.80;133737;1298;22442;-75
2023/09/07 00:50:19;;;;;;;13.00;8.90;;;;;;;11.66;78.91;101092.52;133562;1301;23027;-75
2023/09/07 00:53:20;;;;;;;14.60;9.20;;;;;;;11.63;78.84;101086.34;133754;1301;22450;-75
2023/09/07 00:56:20;;;;;;;;;;;;;;;11.58;78.94;101083.08;133776;1300;23339;-75
2023/09/07 00:59:21;;;;;;;15.30;9.00;;;;;;;11.55;78.95;101083.20;133654;1301;22342;-75
2023/09/07 01:02:22;;;;;;;10.60;8.00;;;;;;;11.52;79.12;101087.25;133752;1301;23228;-75
2023/09/07 01:05:26;;;;;;;;;;;;;;;11.49;79.22;101089.28;133643;1302;22930;-75
2023/09/07 01:08:36;;;;;;;12.70;8.70;;;;;;;11.46;79.19;101082.50;133738;1301;22209;-75
2023/09/07 01:11:38;;;;;;;12.50;8.60;;;;;;;11.38;79.16;101080.77;133751;1300;22455;-75
2023/09/07 01:14:38;;;;;;;14.00;8.70;;;;;;;11.37;79.18;101085.45;133734;1286;22385;-75
2023/09/07 01:17:40;;;;;;;13.20;9.10;;;;;;;11.33;79.56;101088.40;133757;1301;23046;-75
2023/09/07 01:20:43;;;;;;;12.50;8.60;;;;;;;11.26;79.96;101089.98;133705;1301;22501;-75
2023/09/07 01:23:46;;;;;;;17.10;9.60;;;;;;;11.19;80.09;101089.14;133708;1302;22359;-75
2023/09/07 01:26:49;;;;;;;11.60;8.60;;;;;;;11.17;80.30;101090.46;133748;1301;23072;-75
2023/09/07 01:29:52;;;;;;;11.50;8.50;;;;;;;11.16;80.54;101087.14;133598;1302;23353;-75
2023/09/07 01:32:52;;;;;;;10.10;8.10;;;;;;;11.17;80.27;101089.16;133594;1301;22407;-75
2023/09/07 01:35:53;;;;;;;14.10;8.10;;;;;;;11.15;79.65;101089.52;133724;1301;22352;-75
2023/09/07 01:38:54;;;;;;;;;;;;;;;11.12;79.40;101084.99;133728;1301;22446;-75
2023/09/07 01:41:54;;;;;;;19.40;8.10;;;;;;;11.09;79.59;101085.34;133718;1301;22383;-75
2023/09/07 01:44:55;;;;;;;13.00;8.70;;;;;;;11.06;79.92;101082.23;133701;1301;22387;-75
2023/09/07 01:47:55;;;;;;;13.50;9.50;;;;;;;11.08;80.69;101084.14;133564;1301;22452;-75
2023/09/07 01:50:56;;;;;;;13.90;9.40;;;;;;;11.14;81.03;101082.92;133713;1301;22451;-75
2023/09/07 01:53:58;;;;;;;11.90;7.90;;;;;;;11.18;81.01;101084.10;133712;1301;22495;-75
2023/09/07 01:56:58;;;;;;;12.00;8.10;;;;;;;11.17;80.17;101089.15;133724;1289;22445;-75
2023/09/07 01:59:59;;;;;;;11.40;7.40;;;;;;;11.16;80.12;101088.16;133578;1302;22384;-75
2023/09/07 02:02:59;;;;;;;13.50;9.00;;;;;;;11.15;80.06;101089.52;133598;1294;23099;-75
2023/09/07 02:06:00;;;;;;;13.50;8.50;;;;;;;11.14;80.85;101089.06;133761;1302;22427;-75
2023/09/07 02:09:00;;;;;;;12.40;8.80;;;;;;;11.12;80.76;101089.79;133705;1301;22494;-75
2023/09/07 02:12:02;;;;;;;13.70;9.10;;;;;;;11.12;80.81;101088.96;133739;1301;22421;-75
2023/09/07 02:15:05;;;;;;;16.40;10.10;;;;;;;11.10;81.18;101089.83;133735;1300;23132;-75
2023/09/07 02:18:06;;;;;;;13.80;7.90;;;;;;;11.12;81.50;101090.89;133717;1302;22429;-75
2023/09/07 02:21:06;;;;;;;14.00;9.70;;;;;;;11.12;81.31;101087.33;133723;1301;22394;-75
2023/09/07 02:24:07;;;;;;;13.60;10.00;;;;;;;11.13;81.57;101093.27;133591;1301;22524;-75
2023/09/07 02:27:09;;;;;;;12.40;9.40;;;;;;;11.16;81.87;101093.66;133587;1301;23867;-75
2023/09/07 02:30:10;;;;;;;;;;;;;;;11.17;81.71;101094.48;133599;1302;22474;-75
2023/09/07 02:33:11;;;;;;;14.20;8.60;;;;;;;11.13;81.38;101088.19;133694;1301;22513;-75
2023/09/07 02:36:12;;;;;;;17.30;10.90;;;;;;;11.06;81.31;101093.77;133732;1300;22263;-75
2023/09/07 02:39:13;;;;;;;15.30;10.00;;;;;;;10.96;81.44;101096.45;133709;1301;22456;-75
2023/09/07 02:42:14;;;;;;;13.70;10.10;;;;;;;10.92;81.73;101092.58;133579;1301;22462;-75
2023/09/07 02:45:15;;;;;;;11.90;8.80;;;;;;;10.89;81.94;101093.25;133684;1301;23131;-75
2023/09/07 02:48:16;;;;;;;;;;;;;;;10.87;81.83;101091.52;133581;1301;22451;-75
2023/09/07 02:51:17;;;;;;;;;;;;;;;10.86;82.20;101089.15;133588;1301;22479;-75
2023/09/07 02:54:18;;;;;;;11.50;8.40;;;;;;;10.86;82.08;101091.80;133653;1302;22922;-74
2023/09/07 02:57:19;;;;;;;11.60;8.10;;;;;;;10.86;82.00;101090.05;133565;1301;22415;-75
2023/09/07 03:00:20;;;;;;;12.90;9.10;;;;;;;10.86;81.95;101093.89;133583;1301;22489;-75
2023/09/07 03:03:20;;;;;;;18.40;9.90;;;;;;;10.85;82.24;101091.37;133733;1302;22228;-75
2023/09/07 03:06:21;;;;;;;;;;;;;;;10.77;82.35;101095.05;133612;1302;22451;-75
2023/09/07 03:09:24;;;;;;;13.50;11.00;;;;;;;10.70;81.84;101094.88;133585;1302;23149;-75
2023/09/07 03:12:25;;;;;;;14.70;10.70;;;;;;;10.66;82.12;101097.73;133607;1301;22307;-75
2023/09/07 03:15:27;;;;;;;13.60;10.40;;;;;;;10.64;82.30;101098.30;133622;1302;22458;-75
2023/09/07 03:18:28;;;;;;;11.80;9.20;;;;;;;10.59;81.92;101100.69;133584;1302;22400;-75
2023/09/07 03:21:29;;;;;;;15.60;10.10;;;;;;;10.53;81.65;101098.23;133614;1302;168756;-75
2023/09/07 03:24:30;;;;;;;15.40;10.50;;;;;;;10.51;82.36;101098.05;133701;1301;23128;-75
2023/09/07 03:27:31;;;;;;;14.40;9.20;;;;;;;10.49;82.53;101103.02;133596;1301;22368;-75
2023/09/07 03:30:33;;;;;;;14.70;9.40;;;;;;;10.44;82.26;101101.17;133718;1301;22277;-75
2023/09/07 03:33:33;;;;;;;15.40;9.60;;;;;;;10.43;82.56;101100.77;133575;1301;23164;-75
2023/09/07 03:36:34;;;;;;;12.50;9.20;;;;;;;10.43;82.24;101102.14;133526;1301;22374;-75
2023/09/07 03:39:34;;;;;;;10.90;8.50;;;;;;;10.40;81.93;101102.79;133548;1302;22257;-75
2023/09/07 03:42:35;;;;;;;13.00;8.80;;;;;;;10.37;82.21;101098.35;133583;1301;23031;-75
2023/09/07 03:45:37;;;;;;;12.40;9.40;;;;;;;10.35;82.01;101103.45;133622;1300;23079;-75
2023/09/07 03:48:39;;;;;;;14.40;10.20;;;;;;;10.32;82.21;101103.18;133554;1302;22407;-75
2023/09/07 03:51:39;;;;;;;15.70;10.50;;;;;;;10.29;82.57;101101.34;133618;1302;22436;-75
2023/09/07 03:54:40;;;;;;;13.10;8.80;;;;;;;10.24;82.67;101097.45;133601;1301;22272;-76
2023/09/07 03:57:41;;;;;;;11.30;8.10;;;;;;;10.21;82.14;101092.27;133566;1301;22476;-76
2023/09/07 04:00:44;;;;;;;12.00;9.40;;;;;;;10.17;82.18;101094.45;133597;1301;22472;-74
2023/09/07 04:03:45;;;;;;;12.10;7.50;;;;;;;10.15;82.32;101096.38;133545;1302;22250;-74
2023/09/07 04:06:47;;;;;;;12.90;8.70;;;;;;;10.16;81.72;101095.80;133697;1301;22435;-75
2023/09/07 04:09:51;;;;;;;15.50;9.10;;;;;;;10.16;81.94;101102.45;133703;1301;22426;-75
2023/09/07 04:12:51;;;;;;;11.40;9.10;;;;;;;10.16;81.80;101105.86;133675;1305;22520;-75
2023/09/07 04:15:52;;;;;;;12.30;9.40;;;;;;;10.14;81.73;101106.92;133656;1301;22505;-75
2023/09/07 04:18:52;;;;;;;13.60;9.60;;;;;;;10.15;82.22;101111.25;133731;1289;22350;-75
2023/09/07 04:21:53;;;;;;;14.60;10.00;;;;;;;10.16;81.82;101112.92;133738;1302;22469;-75
2023/09/07 04:24:53;;;;;;;;;;;;;;;10.16;82.02;101111.48;133715;1302;22532;-75
2023/09/07 04:27:56;;;;;;;13.00;8.50;;;;;;;10.18;82.35;101112.87;133708;1301;22492;-75
2023/09/07 04:30:57;;;;;;;11.60;9.20;;;;;;;10.19;81.92;101114.02;133575;1300;23053;-75
2023/09/07 04:33:57;;;;;;;;;;;;;;;10.18;81.96;101115.36;133589;1301;22529;-75
2023/09/07 04:36:58;;;;;;;15.20;9.80;;;;;;;10.18;82.29;101112.70;133609;1301;23298;-75
2023/09/07 04:39:59;;;;;;;13.40;9.00;;;;;;;10.21;82.69;101117.02;133621;1305;22412;-74
2023/09/07 04:42:59;;;;;;;14.30;9.10;;;;;;;10.21;82.37;101120.60;133753;1305;22381;-76
2023/09/07 04:46:00;;;;;;;13.80;9.60;;;;;;;10.23;82.35;101122.55;133667;1303;22384;-75
2023/09/07 04:49:01;;;;;;;11.60;9.10;;;;;;;10.24;82.40;101122.95;133684;1302;22862;-75
2023/09/07 04:52:01;;;;;;;12.10;8.10;;;;;;;10.26;82.30;101125.58;133706;1301;22513;-75
2023/09/07 04:55:06;;;;;;;13.00;8.20;;;;;;;10.30;82.01;101125.47;133715;1301;22234;-76
2023/09/07 04:58:07;;;;;;;14.30;8.30;;;;;;;10.32;81.97;101122.11;133592;1301;23312;-76
2023/09/07 05:01:12;;;;;;;11.40;8.80;;;;;;;10.40;82.33;101123.64;133604;1302;22401;-76
2023/09/07 05:04:13;;;;;;;14.30;8.80;;;;;;;10.48;82.49;101123.11;133705;1301;22352;-76
2023/09/07 05:07:13;;;;;;;;;;;;;;;10.58;82.52;101128.17;133745;1305;22541;-76
2023/09/07 05:10:14;;;;;;;18.40;9.50;;;;;;;10.74;83.04;101129.57;133703;1305;22348;-77
2023/09/07 05:13:15;;;;;;;;;;;;;;;11.15;83.72;101134.30;133643;1306;22462;-76
2023/09/07 05:16:16;;;;;;;11.60;8.90;;;;;;;11.67;83.67;101130.73;133683;1301;22247;-76
2023/09/07 05:19:17;;;;;;;10.30;8.10;;;;;;;12.28;83.65;101135.41;133587;1302;23013;-76
2023/09/07 05:22:17;;;;;;;11.30;8.70;;;;;;;12.95;83.57;101132.86;133631;1302;22321;-76
2023/09/07 05:25:21;;;;;;;;;;;;;;;13.65;83.31;101132.96;133744;1301;22585;-76
2023/09/07 05:28:22;;;;;;;12.20;9.50;;;;;;;14.35;83.00;101132.77;133572;1302;22217;-76
2023/09/07 05:31:23;;;;;;;14.50;9.00;;;;;;;15.07;82.34;101134.54;133586;1300;22338;-76
2023/09/07 05:34:24;;;;;;;;;;;;;;;15.67;81.24;101135.89;133671;1301;22483;-76
2023/09/07 05:37:27;;;;;;;11.50;8.90;;;;;;;16.15;80.47;101139.48;133466;1302;23488;-76
2023/09/07 05:40:28;;;;;;;12.60;9.50;;;;;;;16.72;80.03;101142.59;133538;1302;22418;-76
2023/09/07 05:43:29;;;;;;;10.30;8.30;;;;;;;17.32;79.03;101144.89;133555;1302;22436;-76
2023/09/07 05:46:30;;;;;;;16.70;9.70;;;;;;;17.82;78.10;101146.51;133335;1301;23023;-76
2023/09/07 05:49:30;;;;;;;;;;;;;;;18.29;76.91;101146.63;133612;1301;24454;-76
2023/09/07 05:52:31;;;;;;;;;;;;;;;18.67;75.90;101147.34;133628;1305;22451;-76
2023/09/07 05:55:32;;;;;;;15.80;10.00;;;;;;;18.94;74.66;101150.37;133501;1301;22363;-77
2023/09/07 05:58:33;;;;;;;13.70;9.60;;;;;;;19.19;73.95;101154.86;133631;1302;22316;-76
2023/09/07 06:01:34;;;;;;;14.20;9.00;;;;;;;19.42;73.19;101153.38;133553;1302;22347;-76
2023/09/07 06:04:38;;;;;;;12.20;8.50;;;;;;;19.72;73.15;101150.36;133535;1302;22458;-76
2023/09/07 06:07:39;;;;;;;11.40;8.80;;;;;;;20.20;72.68;101155.89;133561;1302;23661;-76
2023/09/07 06:10:41;;;;;;;14.00;9.20;;;;;;;20.64;71.74;101157.47;133549;1301;23030;-77
2023/09/07 06:13:42;;;;;;;18.00;9.10;;;;;;;20.92;70.56;101155.72;133519;1301;22402;-76
2023/09/07 06:16:46;;;;;;;15.10;8.60;;;;;;;21.22;69.99;101160.55;133719;1302;22344;-76
2023/09/07 06:19:47;;;;;;;13.90;9.80;;;;;;;21.57;69.35;101156.05;133560;1302;22362;-80
2023/09/07 06:22:49;;;;;;;13.60;9.80;;;;;;;21.90;67.84;101156.20;133718;1295;22403;-80
2023/09/07 06:25:49;;;;;;;18.40;9.00;;;;;;;21.96;66.89;101159.22;133725;1302;23460;-81
2023/09/07 06:28:50;;;;;;;12.60;8.90;;;;;;;22.19;66.61;101158.56;133605;1302;22406;-82
2023/09/07 06:31:52;;;;;;;13.20;8.90;;;;;;;22.49;65.48;101159.14;133636;1301;22448;-81
2023/09/07 06:34:53;;;;;;;16.70;9.40;;;;;;;22.67;65.16;101160.67;133517;1301;23445;-76
2023/09/07 06:37:54;;;;;;;13.00;9.00;;;;;;;22.97;64.50;101161.94;133616;1301;22389;-80
2023/09/07 06:40:57;;;;;;;12.10;8.90;;;;;;;23.18;63.64;101165.20;133513;1302;22684;-81
2023/09/07 06:44:00;;;;;;;15.10;8.70;;;;;;;23.40;63.09;101168.66;133693;1302;23351;-79
2023/09/07 06:47:00;;;;;;;13.90;9.10;;;;;;;23.62;62.16;101170.81;133516;1301;22412;-79
2023/09/07 06:50:02;;;;;;;12.90;8.00;;;;;;;23.77;61.41;101175.98;133578;1301;22353;-76
2023/09/07 06:53:05;;;;;;;15.40;8.90;;;;;;;24.03;61.53;101173.38;133558;1301;23258;-80
2023/09/07 06:56:06;;;;;;;13.40;7.90;;;;;;;24.41;60.41;101174.90;133573;1302;23197;-80
2023/09/07 06:59:07;;;;;;;12.80;7.90;;;;;;;24.47;59.08;101175.41;133585;1302;22416;-79
2023/09/07 07:02:07;;;;;;;11.20;8.10;;;;;;;24.21;57.69;101178.84;133526;1301;22455;-79
2023/09/07 07:05:08;;;;;;;11.60;8.20;;;;;;;24.15;57.93;101183.08;133583;1302;22371;-81
2023/09/07 07:08:09;;;;;;;9.50;7.30;;;;;;;24.25;56.57;101185.15;133530;1300;22381;-79
2023/09/07 07:11:10;;;;;;;13.10;7.20;;;;;;;24.00;56.10;101186.67;133545;1301;22430;-80
2023/09/07 07:14:11;;;;;;;8.60;6.70;;;;;;;24.05;56.45;101188.65;133534;1301;22548;-79
2023/09/07 07:17:15;;;;;;;12.80;7.40;;;;;;;24.16;55.93;101189.91;133582;1302;23228;-79
2023/09/07 07:20:15;;;;;;;8.30;6.50;;;;;;;24.28;55.13;101186.53;133719;1305;22364;-81
2023/09/07 07:23:16;;;;;;;10.30;6.80;;;;;;;24.36;54.65;101187.20;133677;1302;23951;-78
2023/09/07 07:26:17;;;;;;;9.90;7.40;;;;;;;24.36;54.37;101188.86;133577;1301;22406;-81
2023/09/07 07:29:21;;;;;;;12.80;7.20;;;;;;;24.38;54.02;101185.17;133558;1302;23196;-79
2023/09/07 07:32:21;;;;;;;11.10;6.90;;;;;;;24.52;54.11;101190.02;133570;1301;22632;-79
2023/09/07 07:35:23;;;;;;;11.90;7.50;;;;;;;24.65;53.90;101193.64;133520;1302;22477;-80
2023/09/07 07:38:24;;;;;;;11.20;7.60;;;;;;;24.75;53.52;101190.23;133546;1301;23204;-80
2023/09/07 07:41:25;;;;;;;10.20;7.50;;;;;;;24.78;53.18;101192.65;133543;1308;23740;-81
2023/09/07 07:44:26;;;;;;;11.70;8.00;;;;;;;24.89;53.10;101192.91;133592;1302;22495;-80
2023/09/07 07:47:26;;;;;;;16.10;8.90;;;;;;;25.12;52.96;101195.58;133670;1301;22454;-80
2023/09/07 07:50:31;;;;;;;12.90;7.50;;;;;;;25.21;52.21;101195.63;133666;1301;23002;-79
2023/09/07 07:53:32;;;;;;;11.50;6.60;;;;;;;25.26;52.12;101196.82;133605;1301;22475;-79
2023/09/07 07:56:38;;;;;;;11.80;7.10;;;;;;;25.31;51.83;101194.59;133652;1301;22744;-79
2023/09/07 07:59:39;;;;;;;11.50;6.50;;;;;;;25.43;51.85;101194.91;133603;1302;22471;-79
2023/09/07 08:02:45;;;;;;;7.80;6.80;;;;;;;25.52;51.13;101188.79;133582;1301;22600;-80
2023/09/07 08:05:47;;;;;;;11.60;7.50;;;;;;;25.63;51.11;101187.60;133600;1301;23196;-79
2023/09/07 08:08:49;;;;;;;10.00;6.50;;;;;;;25.65;50.85;101184.05;133563;1301;22588;-78
2023/09/07 08:11:51;;;;;;;10.50;6.50;;;;;;;25.67;50.67;101182.89;133531;1301;23074;-79
2023/09/07 08:14:52;;;;;;;9.00;7.20;;;;;;;25.63;49.86;101180.96;133566;1301;23002;-80
2023/09/07 08:17:52;;;;;;;7.20;5.70;;;;;;;25.69;49.94;101182.39;133724;1300;22522;-79
2023/09/07 08:20:54;;;;;;;8.60;6.30;;;;;;;25.69;49.08;101181.57;133707;1301;22270;-79
2023/09/07 08:23:56;;;;;;;9.50;6.60;;;;;;;25.74;49.37;101182.43;133582;1302;23018;-79
2023/09/07 08:26:57;;;;;;;11.40;6.80;;;;;;;25.93;49.17;101185.36;133613;1300;22524;-81
2023/09/07 08:29:59;;;;;;;8.70;6.50;;;;;;;26.02;48.62;101184.13;133659;1301;22377;-79
2023/09/07 08:33:08;;;;;;;7.10;6.10;;;;;;;26.04;48.37;101181.61;133705;1301;22279;-79
2023/09/07 08:36:16;;;;;;;9.20;6.30;;;;;;;26.16;48.63;101181.98;133712;1301;22220;-79
2023/09/07 08:39:18;;;;;;;9.40;6.00;;;;;;;26.28;48.38;101178.79;133711;1301;22194;-79
2023/09/07 08:42:19;;;;;;;10.70;6.80;;;;;;;26.48;48.04;101182.63;133720;1301;22347;-79
2023/09/07 08:45:28;;;;;;;7.50;6.30;;;;;;;26.49;47.67;101174.90;133695;1300;22426;-79
2023/09/07 08:48:30;;;;;;;13.70;6.70;;;;;;;26.60;47.46;101174.44;133502;1301;22437;-79
2023/09/07 08:51:31;;;;;;;10.70;6.70;;;;;;;26.68;47.66;101171.25;133726;1300;22504;-79
2023/09/07 08:54:34;;;;;;;8.90;6.60;;;;;;;26.78;47.22;101167.22;133679;1300;22380;-80
2023/09/07 08:57:40;;;;;;;8.80;6.20;;;;;;;26.86;46.98;101169.17;133676;1301;22362;-79
2023/09/07 09:00:43;;;;;;;8.80;5.90;;;;;;;26.86;45.84;101166.66;133702;1300;22425;-78
2023/09/07 09:03:45;;;;;;;8.20;6.00;;;;;;;26.77;46.06;101171.23;133717;1301;22351;-79
2023/09/07 09:06:46;;;;;;;9.80;5.50;;;;;;;26.80;46.31;101169.48;133702;1301;22601;-79
2023/09/07 09:09:47;;;;;;;8.70;5.90;;;;;;;27.04;46.47;101168.57;133609;1301;22431;-80
2023/09/07 09:12:48;;;;;;;10.80;5.90;;;;;;;27.01;45.58;101169.23;133689;1301;22385;-80
2023/09/07 09:15:55;;;;;;;7.70;5.50;;;;;;;26.88;45.52;101170.02;133736;1301;23067;-79
2023/09/07 09:18:58;;;;;;;9.30;5.60;;;;;;;26.70;44.74;101174.06;133764;1298;22440;-80
2023/09/07 09:22:03;;;;;;;13.00;5.90;;;;;;;26.80;45.48;101166.75;133694;1301;23266;-80
2023/09/07 09:25:05;;;;;;;8.30;5.60;;;;;;;27.00;44.64;101169.42;133711;1300;22459;-77
2023/09/07 09:28:06;;;;;;;9.60;6.00;;;;;;;26.77;44.16;101165.23;133714;1300;22494;-79
2023/09/07 09:31:12;;;;;;;10.80;6.10;;;;;;;26.62;44.47;101165.00;133665;1301;22294;-80
2023/09/07 09:34:12;;;;;;;19.70;5.90;;;;;;;26.67;44.84;101163.77;133708;1300;22445;-79
2023/09/07 09:37:18;;;;;;;9.20;5.50;;;;;;;26.74;44.10;101159.03;133699;1301;22377;-79
2023/09/07 09:40:19;;;;;;;5.60;5.00;;;;;;;26.69;44.32;101153.45;133693;1301;22247;-80
2023/09/07 09:43:25;;;;;;;7.70;5.20;;;;;;;26.86;44.47;101157.69;133688;1301;22450;-79
2023/09/07 09:46:27;;;;;;;5.90;5.00;;;;;;;26.98;44.20;101154.44;133551;1301;22434;-80
2023/09/07 09:49:29;;;;;;;22.80;5.70;;;;;;;27.23;43.99;101152.61;133708;1302;23005;-79
2023/09/07 09:52:30;;;;;;;5.80;4.80;;;;;;;27.08;43.05;101160.20;133666;1301;22494;-78
2023/09/07 09:55:31;;;;;;;9.60;5.50;;;;;;;26.91;43.35;101156.02;133690;1301;22896;-78
2023/09/07 09:58:35;;;;;;;8.20;5.40;;;;;;;26.88;42.87;101151.45;133731;1301;22513;-79
2023/09/07 10:01:50;;;;;;;6.60;5.20;;;;;;;26.75;42.84;101155.13;133568;1300;23148;-81
2023/09/07 10:04:51;;;;;;;6.90;5.00;;;;;;;26.76;43.22;101153.23;133664;1300;22293;-78
2023/09/07 10:07:51;;;;;;;5.50;4.80;;;;;;;26.78;42.74;101154.20;133738;1300;23303;-79
2023/09/07 10:10:56;;;;;;;5.30;4.60;;;;;;;26.70;42.76;101157.73;133720;1305;22412;-80
2023/09/07 10:14:03;;;;;;;7.90;5.50;;;;;;;26.59;41.78;101159.14;133702;1301;22382;-78
2023/09/07 10:17:04;;;;;;;7.20;5.20;;;;;;;26.53;42.21;101158.75;133745;1302;22381;-79
2023/09/07 10:20:05;;;;;;;9.50;5.40;;;;;;;26.58;42.42;101157.52;133798;1301;22465;-79
2023/09/07 10:23:06;;;;;;;5.90;4.70;;;;;;;26.66;42.12;101150.74;133736;1301;22833;-81
2023/09/07 10:26:17;;;;;;;6.90;5.20;;;;;;;26.55;41.59;101155.30;133697;1301;22471;-79
2023/09/07 10:29:19;;;;;;;5.60;4.90;;;;;;;26.41;41.50;101150.05;133586;1301;22438;-78
2023/09/07 10:32:19;;;;;;;6.40;5.00;;;;;;;26.37;42.41;101149.77;133706;1298;22407;-81
2023/09/07 10:35:25;;;;;;;6.60;5.60;;;;;;;26.49;42.52;101150.52;133713;1301;23222;-81
2023/09/07 10:38:26;;;;;;;6.60;4.70;;;;;;;26.51;42.56;101143.37;133661;1300;22490;-80
2023/09/07 10:41:26;;;;;;;6.30;5.40;;;;;;;26.66;42.56;101137.74;133679;1301;22663;-79
2023/09/07 10:44:28;;;;;;;6.90;5.20;;;;;;;26.65;41.52;101136.20;133669;1301;22375;-82
2023/09/07 10:47:28;;;;;;;7.90;5.20;;;;;;;26.66;42.64;101132.25;133688;1300;22572;-79
2023/09/07 10:50:29;;;;;;;5.50;4.80;;;;;;;26.88;42.47;101130.28;133710;1300;22458;-78
2023/09/07 10:53:32;;;;;;;6.00;5.10;;;;;;;26.94;41.56;101134.39;133673;1301;22183;-78
2023/09/07 10:56:32;;;;;;;7.90;5.10;;;;;;;26.77;41.67;101121.69;133572;1301;22412;-81
2023/09/07 10:59:33;;;;;;;5.20;4.70;;;;;;;26.85;42.03;101121.19;133713;1297;22438;-79
2023/09/07 11:02:33;;;;;;;8.10;5.50;;;;;;;26.94;41.71;101121.44;133703;1298;22432;-80
2023/09/07 11:05:36;;;;;;;6.10;5.20;;;;;;;26.97;42.04;101116.06;133615;1300;22579;-79
2023/09/07 11:08:37;;;;;;;6.30;5.10;;;;;;;26.97;42.20;101112.48;133746;1300;22238;-78
2023/09/07 11:11:38;;;;;;;8.00;5.10;;;;;;;27.07;42.17;101111.69;133742;1301;22374;-81
2023/09/07 11:14:39;;;;;;;9.00;5.30;;;;;;;27.21;41.97;101111.27;133751;1301;23143;-79
2023/09/07 11:17:40;;;;;;;5.30;4.70;;;;;;;27.27;41.52;101112.30;133740;1300;22505;-79
2023/09/07 11:20:41;;;;;;;8.50;4.90;;;;;;;27.23;41.30;101110.73;133724;1301;22439;-78
2023/09/07 11:23:43;;;;;;;6.10;5.50;;;;;;;27.21;41.28;101110.75;133731;1301;22433;-78
2023/09/07 11:26:45;;;;;;;6.10;5.20;;;;;;;27.20;41.39;101111.17;133748;1300;22362;-79
2023/09/07 11:29:52;;;;;;;8.40;5.20;;;;;;;27.20;40.90;101111.95;133718;1301;23550;-79
2023/09/07 11:33:09;;;;;;;7.00;4.90;;;;;;;27.24;40.94;101110.08;133771;1301;22497;-78
2023/09/07 11:36:11;;;;;;;7.10;4.70;;;;;;;27.28;40.66;101111.43;133647;1301;22357;-80
2023/09/07 11:39:12;;;;;;;6.60;4.90;;;;;;;27.20;40.06;101104.52;133763;1302;24886;-78
2023/09/07 11:42:12;;;;;;;8.10;4.90;;;;;;;27.11;40.65;101103.84;133699;1300;22342;-81
2023/09/07 11:45:13;;;;;;;6.80;5.10;;;;;;;27.07;40.30;101103.02;133754;1301;22214;-79
2023/09/07 11:48:16;;;;;;;7.20;5.00;;;;;;;27.08;40.56;101105.10;133699;1301;22447;-78
2023/09/07 11:51:17;;;;;;;6.30;5.20;;;;;;;27.16;40.67;101099.61;133697;1301;22375;-79
2023/09/07 11:54:18;;;;;;;7.30;4.70;;;;;;;27.19;40.40;101093.25;133705;1301;22441;-78
2023/09/07 11:57:18;;;;;;;6.30;5.00;;;;;;;27.07;39.46;101103.04;133742;1302;22428;-79
2023/09/07 12:00:19;;;;;;;7.50;4.80;;;;;;;26.96;39.93;101096.79;133685;1301;22471;-78
2023/09/07 12:03:20;;;;;;;6.90;5.10;;;;;;;26.94;40.33;101093.71;133762;1301;23220;-79
2023/09/07 12:06:20;;;;;;;5.00;4.50;;;;;;;26.94;39.88;101095.11;133722;1301;22362;-78
2023/09/07 12:09:21;;;;;;;7.70;4.70;;;;;;;26.86;39.75;101097.04;133734;1301;23013;-80
2023/09/07 12:12:21;;;;;;;7.90;5.20;;;;;;;26.88;40.08;101090.53;133707;1300;22452;-79
2023/09/07 12:15:22;;;;;;;6.90;5.50;;;;;;;26.91;40.21;101087.19;133713;1300;22370;-79
2023/09/07 12:18:23;;;;;;;9.00;5.40;;;;;;;27.06;40.50;101085.85;133716;1300;22462;-82
2023/09/07 12:21:24;;;;;;;6.00;5.10;;;;;;;27.06;40.57;101084.21;133714;1301;22462;-80
2023/09/07 12:24:24;;;;;;;5.80;5.20;;;;;;;27.09;40.22;101087.26;133719;1300;22482;-74
2023/09/07 12:27:25;;;;;;;5.40;4.80;;;;;;;27.14;40.23;101077.79;133686;1301;22796;-74
2023/09/07 12:30:26;;;;;;;6.70;4.50;;;;;;;27.22;40.51;101080.96;133690;1301;23362;-74
2023/09/07 12:33:29;;;;;;;5.40;4.40;;;;;;;27.25;40.08;101078.10;133676;1301;22376;-74
2023/09/07 12:36:29;;;;;;;6.00;5.00;;;;;;;27.07;39.91;101077.33;133723;1301;22393;-75
2023/09/07 12:39:31;;;;;;;6.00;5.20;;;;;;;26.96;40.28;101066.55;133766;1301;22527;-74
2023/09/07 12:42:32;;;;;;;8.80;5.10;;;;;;;26.92;40.48;101067.70;133810;1301;23104;-74
2023/09/07 12:45:32;;;;;;;10.30;5.40;;;;;;;26.98;40.36;101065.92;133769;1301;22405;-74
2023/09/07 12:48:33;;;;;;;5.80;4.90;;;;;;;26.96;40.18;101070.31;133747;1297;23354;-75
2023/09/07 12:51:33;;;;;;;7.40;5.00;;;;;;;26.95;40.33;101064.36;133701;1301;22380;-74
2023/09/07 12:54:36;;;;;;;5.20;4.60;;;;;;;26.97;40.40;101065.30;133719;1301;22826;-74
2023/09/07 12:57:37;;;;;;;5.30;4.80;;;;;;;26.94;39.92;101061.95;133724;1300;23061;-75
2023/09/07 13:00:37;;;;;;;5.70;4.60;;;;;;;26.89;40.23;101050.63;133795;1301;22517;-74
2023/09/07 13:03:38;;;;;;;6.30;4.70;;;;;;;26.82;40.02;101049.80;133716;1301;22370;-74
2023/09/07 13:06:39;;;;;;;7.20;4.60;;;;;;;26.79;40.67;101049.73;133722;1301;22446;-75
2023/09/07 13:09:42;;;;;;;8.20;5.00;;;;;;;26.85;40.77;101052.80;133753;1301;22423;-75
2023/09/07 13:12:42;;;;;;;5.10;4.30;;;;;;;26.86;40.32;101039.41;133734;1300;23196;-75
2023/09/07 13:15:43;;;;;;;5.30;4.70;;;;;;;26.87;39.67;101039.87;133761;1300;23134;-74
2023/09/07 13:18:43;;;;;;;5.50;4.50;;;;;;;26.80;40.07;101038.74;133761;1300;22537;-74
2023/09/07 13:21:44;;;;;;;5.20;4.40;;;;;;;26.81;39.58;101044.48;133603;1301;22296;-75
2023/09/07 13:24:45;;;;;;;5.00;4.20;;;;;;;26.76;39.13;101038.96;133742;1300;22467;-75
2023/09/07 13:27:45;;;;;;;6.60;4.80;;;;;;;26.76;39.33;101042.17;133786;1300;22375;-75
2023/09/07 13:30:46;;;;;;;5.50;5.00;;;;;;;26.70;39.56;101044.49;133772;1300;22176;-75
2023/09/07 13:33:50;;;;;;;5.90;4.50;;;;;;;26.64;40.07;101043.91;133730;1300;22516;-75
2023/09/07 13:36:50;;;;;;;5.70;4.60;;;;;;;26.61;40.15;101039.05;133781;1301;22443;-74
2023/09/07 13:39:51;;;;;;;5.80;4.80;;;;;;;26.57;40.24;101035.38;133763;1301;22180;-75
2023/09/07 13:42:52;;;;;;;4.80;4.10;;;;;;;26.57;40.30;101035.60;133779;1301;22460;-75
2023/09/07 13:45:52;;;;;;;5.20;4.70;;;;;;;26.58;40.07;101036.64;133724;1301;22587;-74
2023/09/07 13:48:54;;;;;;;6.80;4.60;;;;;;;26.54;39.99;101033.16;133759;1301;22409;-74
2023/09/07 13:51:54;;;;;;;7.70;5.00;;;;;;;26.48;39.66;101029.29;133733;1302;22239;-74
2023/09/07 13:54:55;;;;;;;5.70;4.30;;;;;;;26.44;39.92;101027.49;133773;1301;22482;-75